createdAt,value
2023-04-21T00:05:50.207Z,100
2023-04-21T00:11:50.203Z,100
2023-04-21T00:17:50.221Z,100
2023-04-21T00:23:50.234Z,100
2023-04-21T00:29:50.207Z,100
2023-04-21T00:35:50.175Z,100
2023-04-21T00:41:50.184Z,100
2023-04-21T00:47:50.231Z,100
2023-04-21T00:53:50.178Z,100
2023-04-21T00:59:50.195Z,100
2023-04-21T01:05:50.172Z,100
2023-04-21T01:11:50.179Z,100
2023-04-21T01:17:50.266Z,100
2023-04-21T01:23:50.190Z,100
2023-04-21T01:29:50.188Z,100
2023-04-21T01:35:50.194Z,100
2023-04-21T01:41:50.194Z,100
2023-04-21T01:47:50.268Z,100
2023-04-21T01:53:50.178Z,100
2023-04-21T01:59:50.175Z,100
2023-04-21T02:05:50.190Z,100
2023-04-21T02:11:50.204Z,100
2023-04-21T02:17:50.179Z,100
2023-04-21T02:23:50.187Z,100
2023-04-21T02:29:50.181Z,100
2023-04-21T02:35:50.175Z,100
2023-04-21T02:41:50.185Z,100
2023-04-21T02:47:50.209Z,100
2023-04-21T02:53:50.181Z,100
2023-04-21T02:59:50.175Z,100
2023-04-21T03:05:50.189Z,100
2023-04-21T03:11:50.541Z,100
2023-04-21T03:17:50.277Z,100
2023-04-21T03:23:50.167Z,100
2023-04-21T03:29:50.212Z,100
2023-04-21T03:35:50.234Z,100
2023-04-21T03:41:50.216Z,100
2023-04-21T03:47:50.227Z,100
2023-04-21T03:53:50.175Z,100
2023-04-21T03:59:50.168Z,100
2023-04-21T04:05:50.186Z,100
2023-04-21T04:11:50.176Z,100
2023-04-21T04:17:50.260Z,100
2023-04-21T04:23:50.199Z,100
2023-04-21T04:29:50.167Z,100
2023-04-21T04:35:50.164Z,100
2023-04-21T04:41:50.162Z,100
2023-04-21T04:47:50.284Z,100
2023-04-21T04:53:50.179Z,100
2023-04-21T05:00:00.455Z,100
2023-04-21T05:05:50.201Z,100
2023-04-21T05:11:50.185Z,100
2023-04-21T05:17:50.211Z,100
2023-04-21T05:23:50.185Z,100
2023-04-21T05:29:50.188Z,100
2023-04-21T05:35:50.163Z,100
2023-04-21T05:41:50.154Z,100
2023-04-21T05:47:50.244Z,100
2023-04-21T05:53:50.173Z,100
2023-04-21T05:59:50.179Z,100
2023-04-21T06:05:50.227Z,100
2023-04-21T06:11:50.199Z,100
2023-04-21T06:17:50.231Z,100
2023-04-21T06:23:50.180Z,100
2023-04-21T06:29:50.169Z,100
2023-04-21T06:35:50.163Z,100
2023-04-21T06:41:50.165Z,100
2023-04-21T06:47:50.253Z,100
2023-04-21T06:53:50.248Z,100
2023-04-21T06:59:50.235Z,100
2023-04-21T07:05:50.290Z,100
2023-04-21T07:11:50.172Z,100
2023-04-21T07:17:50.274Z,100
2023-04-21T07:23:50.192Z,100
2023-04-21T07:29:50.166Z,89.9
2023-04-21T07:35:50.182Z,87.5
2023-04-21T07:41:50.168Z,100
2023-04-21T07:47:50.241Z,100
2023-04-21T07:53:50.175Z,100
2023-04-21T07:59:50.165Z,100
2023-04-21T08:05:50.206Z,100
2023-04-21T08:11:50.200Z,100
2023-04-21T08:17:50.227Z,100
2023-04-21T08:23:50.164Z,100
2023-04-21T08:29:50.176Z,87
2023-04-21T08:36:02.575Z,93.4
2023-04-21T08:41:50.180Z,88.4
2023-04-21T08:47:50.214Z,78
2023-04-21T08:53:50.228Z,82.6
2023-04-21T08:59:50.193Z,77.2
2023-04-21T09:05:50.480Z,75.6
2023-04-21T09:11:50.192Z,69.5
2023-04-21T09:17:50.310Z,71.6
2023-04-21T09:23:50.177Z,72.7
2023-04-21T09:29:50.198Z,80.3
2023-04-21T09:36:00.475Z,68.5
2023-04-21T09:41:50.191Z,65.4
2023-04-21T09:47:50.273Z,57.9
2023-04-21T09:53:50.205Z,54.5
2023-04-21T09:59:50.209Z,49.8
2023-04-21T10:05:50.200Z,52.4
2023-04-21T10:11:50.374Z,51.6
2023-04-21T10:17:50.259Z,53.3
2023-04-21T10:23:50.207Z,54.8
2023-04-21T10:35:50.215Z,50.3
2023-04-21T10:41:50.205Z,54
2023-04-21T10:47:50.223Z,54.8
2023-04-21T10:53:50.203Z,57.4
2023-04-21T10:59:50.204Z,51.2
2023-04-21T11:11:50.205Z,57.7
2023-04-21T11:17:50.224Z,59.5
2023-04-21T11:23:50.191Z,57.1
2023-04-21T11:29:50.245Z,57.9
2023-04-21T11:35:50.198Z,57.9
2023-04-21T11:41:50.197Z,59.9
2023-04-21T11:47:50.366Z,58.4
2023-04-21T11:53:50.203Z,57.6
2023-04-21T11:59:50.215Z,58.2
2023-04-21T12:05:50.228Z,58.2
2023-04-21T12:11:50.210Z,59.7
2023-04-21T12:17:50.244Z,61.3
2023-04-21T12:23:50.206Z,60.9
2023-04-21T12:29:50.221Z,63
2023-04-21T12:35:50.220Z,60.1
2023-04-21T12:41:50.217Z,61.2
2023-04-21T12:47:50.296Z,62.3
2023-04-21T12:53:50.218Z,61.8
2023-04-21T13:03:50.440Z,57.8
2023-04-21T13:09:50.223Z,61.7
2023-04-21T13:15:50.208Z,63.9
2023-04-21T13:21:52.690Z,63.1
2023-04-21T13:27:52.210Z,60.5
2023-04-21T13:33:52.935Z,61.3
2023-04-21T13:39:50.235Z,60.5
2023-04-21T13:45:50.240Z,58.7
2023-04-21T13:51:50.227Z,60.6
2023-04-21T13:57:50.243Z,57.9
2023-04-21T14:03:50.458Z,61.3
2023-04-21T14:09:50.243Z,59.8
2023-04-21T14:15:50.229Z,62
2023-04-21T14:21:50.227Z,60.4
2023-04-21T14:27:50.321Z,58.8
2023-04-21T14:33:50.369Z,59
2023-04-21T14:39:50.230Z,57.6
2023-04-21T14:45:50.338Z,57.7
2023-04-21T14:51:50.247Z,56.5
2023-04-21T14:57:50.259Z,56.5
2023-04-21T15:03:50.352Z,57.6
2023-04-21T15:10:00.825Z,56.5
2023-04-21T15:21:50.226Z,57.7
2023-04-21T15:27:50.218Z,58.1
2023-04-21T15:33:50.234Z,60.4
2023-04-21T15:39:50.234Z,59
2023-04-21T15:45:50.383Z,60.5
2023-04-21T15:51:50.218Z,60.6
2023-04-21T15:57:50.231Z,59.4
2023-04-21T16:03:50.378Z,60.5
2023-04-21T16:09:50.230Z,60
2023-04-21T16:15:50.276Z,60
2023-04-21T16:21:50.255Z,59.4
2023-04-21T16:27:50.292Z,57.2
2023-04-21T16:33:50.268Z,57.4
2023-04-21T16:39:50.301Z,57.8
2023-04-21T16:45:50.236Z,57.2
2023-04-21T16:51:50.336Z,58.1
2023-04-21T16:57:50.239Z,58.8
2023-04-21T17:03:50.353Z,59.5
2023-04-21T17:09:50.250Z,59.5
2023-04-21T17:15:50.246Z,60.2
2023-04-21T17:21:50.309Z,60.7
2023-04-21T17:27:50.242Z,61.5
2023-04-21T17:33:50.294Z,61.8
2023-04-21T17:39:50.239Z,62.9
2023-04-21T17:45:50.300Z,65.5
2023-04-21T17:51:50.244Z,65.2
2023-04-21T17:57:50.277Z,65.9
2023-04-21T18:03:50.690Z,66.6
2023-04-21T18:09:50.253Z,65.4
2023-04-21T18:15:50.261Z,66
2023-04-21T18:21:50.247Z,66.9
2023-04-21T18:27:50.246Z,68.3
2023-04-21T18:33:50.249Z,67.2
2023-04-21T18:39:50.257Z,69.4
2023-04-21T18:45:50.276Z,69.3
2023-04-21T18:51:50.256Z,73.1
2023-04-21T18:57:50.241Z,100
2023-04-21T19:03:50.424Z,100
2023-04-21T19:09:50.269Z,100
2023-04-21T19:15:50.248Z,100
2023-04-21T19:21:50.264Z,100
2023-04-21T19:27:50.240Z,100
2023-04-21T19:33:50.257Z,100
2023-04-21T19:39:50.258Z,100
2023-04-21T19:45:50.380Z,100
2023-04-21T19:51:50.323Z,100
2023-04-21T19:57:50.239Z,100
2023-04-21T20:03:50.431Z,100
2023-04-21T20:09:50.260Z,100
2023-04-21T20:15:50.281Z,100
2023-04-21T20:21:50.263Z,100
2023-04-21T20:27:50.263Z,100
2023-04-21T20:33:50.249Z,100
2023-04-21T20:39:50.260Z,100
2023-04-21T20:45:50.277Z,100
2023-04-21T20:51:50.263Z,100
2023-04-21T20:57:50.260Z,100
2023-04-21T21:03:50.352Z,100
2023-04-21T21:09:50.288Z,100
2023-04-21T21:21:50.246Z,100
2023-04-21T21:27:50.296Z,100
2023-04-21T21:33:50.273Z,100
2023-04-21T21:39:50.258Z,100
2023-04-21T21:45:50.272Z,100
2023-04-21T21:51:50.281Z,100
2023-04-21T21:57:50.247Z,100
2023-04-21T22:03:50.341Z,100
2023-04-21T22:09:50.266Z,100
2023-04-21T22:15:50.276Z,100
2023-04-21T22:21:50.272Z,100
2023-04-21T22:27:50.259Z,100
2023-04-21T22:33:50.244Z,100
2023-04-21T22:39:50.234Z,100
2023-04-21T22:45:50.264Z,100
2023-04-21T22:51:50.244Z,100
2023-04-21T22:57:50.250Z,100
2023-04-21T23:03:50.401Z,100
2023-04-21T23:09:50.266Z,100
2023-04-21T23:15:50.238Z,100
2023-04-21T23:21:50.336Z,100
2023-04-21T23:27:50.231Z,100
2023-04-21T23:33:50.234Z,100
2023-04-21T23:39:50.239Z,100
2023-04-21T23:45:50.331Z,100
2023-04-21T23:51:50.225Z,100
2023-04-21T23:57:50.267Z,100
